Time;durP1;ratioP1;P1;durP2;ratioP2;P2;SDS_P1;SDS_P2;PMS_P1;PMS_P2;Temp;Humidity;BMP_temperature;BMP_pressure;BME280_temperature;BME280_humidity;BME280_pressure;Samples;Min_cycle;Max_cycle;Signal;HPM_P1;HPM_P2
2022/10/06 00:02:18;;;;;;;8.85;2.33;;;;;;;;;;4959816;28;20051;-78
2022/10/06 00:04:45;;;;;;;8.63;2.42;;;;;;;;;;4955590;28;20039;-78
2022/10/06 00:07:11;;;;;;;11.50;3.13;;;;;;;;;;4964705;28;20436;-78
2022/10/06 00:09:37;;;;;;;14.50;3.17;;;;;;;;;;4952648;28;20054;-77
2022/10/06 00:12:03;;;;;;;10.05;2.50;;;;;;;;;;4953508;28;20054;-78
2022/10/06 00:14:29;;;;;;;9.95;2.55;;;;;;;;;;4952468;28;20088;-78
2022/10/06 00:16:58;;;;;;;14.75;3.15;;;;;;;;;;4953109;28;20132;-77
2022/10/06 00:19:24;;;;;;;11.50;3.22;;;;;;;;;;4970297;28;20050;-78
2022/10/06 00:21:51;;;;;;;9.52;2.80;;;;;;;;;;4960849;28;20051;-78
2022/10/06 00:24:17;;;;;;;14.02;2.83;;;;;;;;;;4953133;28;20055;-78
2022/10/06 00:26:44;;;;;;;9.60;2.85;;;;;;;;;;4955899;28;20075;-78
2022/10/06 00:29:12;;;;;;;12.55;2.90;;;;;;;;;;4955374;28;20375;-78
2022/10/06 00:31:38;;;;;;;10.23;2.13;;;;;;;;;;4956179;28;20505;-78
2022/10/06 00:34:04;;;;;;;7.28;2.50;;;;;;;;;;4973297;28;20049;-77
2022/10/06 00:36:31;;;;;;;10.95;3.15;;;;;;;;;;4966785;28;20070;-78
2022/10/06 00:38:57;;;;;;;17.10;3.38;;;;;;;;;;4955600;28;20513;-77
2022/10/06 00:41:23;;;;;;;9.23;2.78;;;;;;;;;;4955585;28;20502;-78
2022/10/06 00:43:51;;;;;;;13.93;4.00;;;;;;;;;;4970087;28;20073;-77
2022/10/06 00:46:20;;;;;;;11.63;2.90;;;;;;;;;;4953935;28;20075;-78
2022/10/06 00:48:48;;;;;;;10.15;2.78;;;;;;;;;;4955850;28;20126;-77
2022/10/06 00:51:14;;;;;;;8.63;2.45;;;;;;;;;;4955475;28;20445;-78
2022/10/06 00:53:41;;;;;;;10.65;2.95;;;;;;;;;;4954028;29;20513;-78
2022/10/06 00:56:07;;;;;;;10.63;2.72;;;;;;;;;;4966834;28;20055;-78
2022/10/06 00:58:33;;;;;;;11.32;2.95;;;;;;;;;;4963721;28;20096;-78
2022/10/06 01:00:59;;;;;;;13.60;3.10;;;;;;;;;;4971343;28;20113;-78
2022/10/06 01:03:34;;;;;;;8.88;2.58;;;;;;;;;;4959058;28;20054;-78
2022/10/06 01:06:02;;;;;;;9.90;3.37;;;;;;;;;;4959922;28;20047;-77
2022/10/06 01:08:29;;;;;;;16.58;3.75;;;;;;;;;;4967243;28;20047;-77
2022/10/06 01:10:55;;;;;;;12.50;2.50;;;;;;;;;;4967076;28;20042;-77
2022/10/06 01:13:21;;;;;;;10.23;3.05;;;;;;;;;;4960588;28;20498;-77
2022/10/06 01:15:53;;;;;;;6.38;2.20;;;;;;;;;;4965653;28;20051;-78
2022/10/06 01:18:21;;;;;;;9.25;2.72;;;;;;;;;;4958187;28;20061;-78
2022/10/06 01:20:55;;;;;;;10.25;2.85;;;;;;;;;;4971001;28;20050;-78
2022/10/06 01:23:21;;;;;;;9.07;2.67;;;;;;;;;;4953768;28;20043;-78
2022/10/06 01:25:47;;;;;;;11.23;2.28;;;;;;;;;;4953683;28;20482;-77
2022/10/06 01:28:13;;;;;;;14.98;3.08;;;;;;;;;;4955635;28;20132;-77
2022/10/06 01:30:51;;;;;;;10.52;2.28;;;;;;;;;;4959494;28;20039;-77
2022/10/06 01:33:18;;;;;;;10.65;3.03;;;;;;;;;;4965100;28;20058;-78
2022/10/06 01:35:47;;;;;;;8.93;2.42;;;;;;;;;;4979321;28;20061;-78
2022/10/06 01:38:13;;;;;;;8.35;2.28;;;;;;;;;;4961864;28;20424;-78
2022/10/06 01:40:39;;;;;;;10.40;3.17;;;;;;;;;;4961940;28;20074;-77
2022/10/06 01:43:05;;;;;;;9.23;2.45;;;;;;;;;;4954479;28;20052;-77
2022/10/06 01:45:31;;;;;;;10.13;2.70;;;;;;;;;;4953705;28;20040;-77
2022/10/06 01:47:57;;;;;;;13.07;2.97;;;;;;;;;;4964634;28;20075;-77
2022/10/06 01:50:23;;;;;;;9.80;3.33;;;;;;;;;;4972874;28;20047;-77
2022/10/06 01:52:49;;;;;;;12.50;2.95;;;;;;;;;;4962643;28;20052;-77
2022/10/06 01:55:16;;;;;;;6.82;2.10;;;;;;;;;;4972684;28;20053;-77
2022/10/06 01:57:42;;;;;;;8.85;2.30;;;;;;;;;;4953657;28;20108;-77
2022/10/06 02:00:09;;;;;;;11.73;3.38;;;;;;;;;;4962310;28;20047;-77
2022/10/06 02:02:35;;;;;;;8.23;2.25;;;;;;;;;;4972497;28;20535;-77
2022/10/06 02:05:02;;;;;;;10.32;2.50;;;;;;;;;;4972300;28;20524;-77
2022/10/06 02:07:28;;;;;;;8.75;2.67;;;;;;;;;;4972200;28;20409;-77
2022/10/06 02:09:54;;;;;;;14.35;3.58;;;;;;;;;;4953437;28;20114;-77
2022/10/06 02:12:20;;;;;;;12.05;3.45;;;;;;;;;;4959409;28;20054;-77
2022/10/06 02:14:46;;;;;;;19.08;3.08;;;;;;;;;;4957092;28;20077;-77
2022/10/06 02:17:12;;;;;;;10.05;2.83;;;;;;;;;;4953192;28;20058;-77
2022/10/06 02:19:38;;;;;;;10.38;2.55;;;;;;;;;;4923469;28;1084840;-77
2022/10/06 02:22:04;;;;;;;8.40;2.35;;;;;;;;;;4973201;28;20046;-77
2022/10/06 02:24:30;;;;;;;9.13;2.40;;;;;;;;;;4958000;28;20051;-77
2022/10/06 02:26:56;;;;;;;9.73;2.80;;;;;;;;;;4954174;28;20093;-77
2022/10/06 02:29:22;;;;;;;13.77;2.70;;;;;;;;;;4952764;28;20066;-77
2022/10/06 02:31:49;;;;;;;7.00;2.20;;;;;;;;;;4958804;28;20489;-77
2022/10/06 02:34:15;;;;;;;7.70;2.55;;;;;;;;;;4956769;28;20058;-77
2022/10/06 02:36:41;;;;;;;12.23;3.28;;;;;;;;;;4965688;28;20047;-77
2022/10/06 02:39:07;;;;;;;10.00;3.08;;;;;;;;;;4959510;28;20050;-77
2022/10/06 02:41:33;;;;;;;9.60;2.83;;;;;;;;;;4960736;28;20478;-77
2022/10/06 02:43:59;;;;;;;12.40;2.70;;;;;;;;;;4969844;28;20494;-77
2022/10/06 02:46:25;;;;;;;6.57;2.70;;;;;;;;;;4966115;28;20173;-77
2022/10/06 02:48:52;;;;;;;9.30;2.75;;;;;;;;;;4953424;28;20044;-77
2022/10/06 02:51:19;;;;;;;7.70;2.45;;;;;;;;;;4953579;28;20122;-77
2022/10/06 02:53:47;;;;;;;9.50;2.72;;;;;;;;;;4965895;28;20164;-77
2022/10/06 02:56:17;;;;;;;11.77;2.35;;;;;;;;;;4972892;28;20051;-77
2022/10/06 02:58:44;;;;;;;8.60;2.60;;;;;;;;;;4972681;28;20148;-77
2022/10/06 03:01:14;;;;;;;7.43;2.75;;;;;;;;;;4972900;28;20143;-77
2022/10/06 03:03:41;;;;;;;7.65;2.70;;;;;;;;;;4972870;28;20043;-77
2022/10/06 03:06:20;;;;;;;8.07;2.65;;;;;;;;;;4972982;28;20078;-77
2022/10/06 03:08:55;;;;;;;8.45;2.20;;;;;;;;;;4970450;28;20127;-77
2022/10/06 03:11:23;;;;;;;12.40;2.60;;;;;;;;;;4953233;28;20043;-77
2022/10/06 03:13:50;;;;;;;10.02;2.83;;;;;;;;;;4952886;28;20509;-77
2022/10/06 03:16:18;;;;;;;9.57;3.10;;;;;;;;;;4953041;28;20039;-77
2022/10/06 03:18:48;;;;;;;11.38;3.40;;;;;;;;;;4952868;28;20058;-77
2022/10/06 03:21:15;;;;;;;7.80;2.50;;;;;;;;;;4959048;28;20078;-77
2022/10/06 03:23:44;;;;;;;6.95;2.72;;;;;;;;;;4965576;28;20051;-77
2022/10/06 03:26:11;;;;;;;6.30;2.53;;;;;;;;;;4952949;28;20048;-77
2022/10/06 03:28:39;;;;;;;10.30;2.50;;;;;;;;;;4953490;28;20495;-77
2022/10/06 03:31:05;;;;;;;10.55;2.55;;;;;;;;;;4952988;29;20157;-77
2022/10/06 03:33:32;;;;;;;9.15;3.25;;;;;;;;;;4961717;28;20081;-76
2022/10/06 03:36:11;;;;;;;10.88;3.00;;;;;;;;;;4977641;28;20048;-75
2022/10/06 03:38:37;;;;;;;11.75;3.08;;;;;;;;;;4974234;28;20058;-76
2022/10/06 03:41:03;;;;;;;14.15;2.80;;;;;;;;;;4973338;28;20043;-76
2022/10/06 03:43:30;;;;;;;11.88;3.35;;;;;;;;;;4967022;28;20566;-77
2022/10/06 03:45:56;;;;;;;9.57;2.92;;;;;;;;;;4955042;28;20043;-77
2022/10/06 03:48:22;;;;;;;12.25;3.13;;;;;;;;;;4954939;28;20067;-77
2022/10/06 03:50:55;;;;;;;13.50;3.42;;;;;;;;;;4972278;28;20038;-77
2022/10/06 03:53:26;;;;;;;13.18;3.72;;;;;;;;;;4970713;28;20046;-77
2022/10/06 03:56:07;;;;;;;17.77;3.15;;;;;;;;;;4966279;28;20466;-77
2022/10/06 03:58:34;;;;;;;11.30;3.63;;;;;;;;;;4954486;28;20085;-77
2022/10/06 04:01:01;;;;;;;11.90;3.33;;;;;;;;;;4952317;28;20557;-77
2022/10/06 04:03:28;;;;;;;12.43;3.28;;;;;;;;;;4972272;28;20470;-77
2022/10/06 04:05:58;;;;;;;10.15;2.97;;;;;;;;;;4971506;28;20038;-77
2022/10/06 04:08:24;;;;;;;10.95;2.92;;;;;;;;;;4971917;28;20047;-77
2022/10/06 04:10:50;;;;;;;12.40;2.78;;;;;;;;;;4953158;28;20142;-78
2022/10/06 04:13:20;;;;;;;16.65;2.83;;;;;;;;;;4964268;28;20134;-78
2022/10/06 04:15:47;;;;;;;11.05;2.80;;;;;;;;;;4961589;28;20100;-78
2022/10/06 04:18:13;;;;;;;9.75;2.70;;;;;;;;;;4955095;28;20059;-78
2022/10/06 04:20:39;;;;;;;14.63;3.10;;;;;;;;;;4952573;28;20413;-78
2022/10/06 04:23:06;;;;;;;11.15;3.25;;;;;;;;;;4952375;28;20051;-78
2022/10/06 04:25:33;;;;;;;15.68;3.67;;;;;;;;;;4952072;28;20574;-78
2022/10/06 04:27:59;;;;;;;16.23;3.70;;;;;;;;;;4952084;28;20398;-78
2022/10/06 04:30:26;;;;;;;12.27;3.58;;;;;;;;;;4952131;28;20073;-78
2022/10/06 04:32:52;;;;;;;14.75;3.40;;;;;;;;;;4952497;28;20040;-78
2022/10/06 04:35:19;;;;;;;14.88;3.13;;;;;;;;;;4951847;28;20490;-78
2022/10/06 04:37:48;;;;;;;14.43;3.10;;;;;;;;;;4952119;28;20047;-78
2022/10/06 04:40:15;;;;;;;12.98;2.90;;;;;;;;;;4964837;28;20093;-78
2022/10/06 04:42:41;;;;;;;15.80;3.10;;;;;;;;;;4951958;29;20498;-78
2022/10/06 04:45:08;;;;;;;13.00;2.85;;;;;;;;;;4951960;28;20051;-78
2022/10/06 04:47:34;;;;;;;12.73;3.08;;;;;;;;;;4951989;28;20039;-78
2022/10/06 04:50:00;;;;;;;10.88;3.30;;;;;;;;;;4952116;28;20122;-78
2022/10/06 04:52:26;;;;;;;12.05;3.33;;;;;;;;;;4968745;28;20438;-78
2022/10/06 04:54:52;;;;;;;12.23;2.80;;;;;;;;;;4967143;28;20047;-78
2022/10/06 04:57:18;;;;;;;13.95;3.42;;;;;;;;;;4952179;28;20135;-78
2022/10/06 05:02:28;;;;;;;12.18;2.85;;;;;;;;;;4954227;28;20502;-78
2022/10/06 05:04:56;;;;;;;14.25;2.72;;;;;;;;;;4971244;28;20100;-78
2022/10/06 05:07:22;;;;;;;11.20;2.90;;;;;;;;;;4963729;28;20100;-78
2022/10/06 05:09:48;;;;;;;12.82;3.30;;;;;;;;;;4972385;28;20133;-78
2022/10/06 05:12:14;;;;;;;9.65;2.70;;;;;;;;;;4969262;28;20046;-78
2022/10/06 05:14:40;;;;;;;15.52;3.25;;;;;;;;;;4955108;28;20047;-78
2022/10/06 05:17:06;;;;;;;16.42;3.28;;;;;;;;;;4954896;29;20054;-78
2022/10/06 05:19:32;;;;;;;12.23;3.45;;;;;;;;;;4954579;29;20055;-78
2022/10/06 05:21:59;;;;;;;13.30;3.03;;;;;;;;;;4966578;28;20047;-78
2022/10/06 05:24:25;;;;;;;9.45;2.60;;;;;;;;;;4974227;28;20129;-78
2022/10/06 05:26:52;;;;;;;10.13;3.05;;;;;;;;;;4960628;28;20054;-78
2022/10/06 05:29:18;;;;;;;11.85;2.90;;;;;;;;;;4974147;28;20055;-78
2022/10/06 05:31:45;;;;;;;13.45;3.30;;;;;;;;;;4961537;28;20043;-78
2022/10/06 05:34:11;;;;;;;14.02;2.90;;;;;;;;;;4962653;28;20126;-78
2022/10/06 05:36:37;;;;;;;11.98;3.10;;;;;;;;;;4969057;28;20043;-78
2022/10/06 05:39:04;;;;;;;8.02;2.30;;;;;;;;;;4964507;28;20047;-78
2022/10/06 05:41:31;;;;;;;9.98;2.65;;;;;;;;;;4965869;28;20082;-80
2022/10/06 05:43:57;;;;;;;9.25;2.88;;;;;;;;;;4961043;28;20097;-81
2022/10/06 05:46:26;;;;;;;11.77;2.78;;;;;;;;;;4955910;28;20379;-76
2022/10/06 05:48:54;;;;;;;13.52;3.05;;;;;;;;;;4965067;28;20498;-77
2022/10/06 05:51:20;;;;;;;8.88;2.30;;;;;;;;;;4976955;28;20490;-77
2022/10/06 05:53:47;;;;;;;9.45;3.10;;;;;;;;;;4971144;28;20137;-77
2022/10/06 05:56:15;;;;;;;16.25;4.05;;;;;;;;;;4965515;28;20051;-77
2022/10/06 05:58:42;;;;;;;12.05;3.35;;;;;;;;;;4956274;28;20039;-77
2022/10/06 06:01:15;;;;;;;10.20;3.05;;;;;;;;;;4955883;28;20436;-77
2022/10/06 06:03:42;;;;;;;12.63;3.20;;;;;;;;;;4969781;28;20047;-77
2022/10/06 06:06:27;;;;;;;11.25;3.10;;;;;;;;;;4953200;29;20079;-77
2022/10/06 06:08:57;;;;;;;8.18;2.63;;;;;;;;;;4954575;29;20127;-77
2022/10/06 06:11:26;;;;;;;11.65;3.25;;;;;;;;;;4954526;28;20050;-76
2022/10/06 06:13:55;;;;;;;14.93;2.88;;;;;;;;;;4969425;28;20078;-77
2022/10/06 06:16:21;;;;;;;14.95;3.10;;;;;;;;;;4958819;28;20413;-77
2022/10/06 06:18:48;;;;;;;8.48;2.67;;;;;;;;;;4972221;28;20063;-77
2022/10/06 06:21:14;;;;;;;9.55;2.88;;;;;;;;;;4964517;28;20043;-77
2022/10/06 06:23:43;;;;;;;18.05;3.63;;;;;;;;;;4967412;28;20043;-77
2022/10/06 06:26:10;;;;;;;12.82;2.83;;;;;;;;;;4964551;28;20057;-77
2022/10/06 06:28:36;;;;;;;10.93;3.13;;;;;;;;;;4953996;29;20051;-77
2022/10/06 06:31:07;;;;;;;8.82;2.70;;;;;;;;;;4954088;28;20047;-77
2022/10/06 06:33:34;;;;;;;10.55;2.97;;;;;;;;;;4954309;28;20486;-77
2022/10/06 06:36:02;;;;;;;13.32;3.35;;;;;;;;;;4954360;28;20051;-77
2022/10/06 06:38:28;;;;;;;17.27;3.35;;;;;;;;;;4967014;28;20126;-77
2022/10/06 06:40:54;;;;;;;12.63;3.80;;;;;;;;;;4954877;28;20090;-77
2022/10/06 06:43:21;;;;;;;15.43;2.97;;;;;;;;;;4954072;28;20043;-77
2022/10/06 06:45:47;;;;;;;13.38;3.00;;;;;;;;;;4954135;28;20059;-76
2022/10/06 06:48:14;;;;;;;13.07;2.80;;;;;;;;;;4966602;28;20043;-77
2022/10/06 06:50:41;;;;;;;17.58;2.83;;;;;;;;;;4973032;28;20038;-77
2022/10/06 06:53:07;;;;;;;11.55;2.50;;;;;;;;;;4972796;28;20043;-77
2022/10/06 06:55:33;;;;;;;9.63;2.85;;;;;;;;;;4955091;28;20079;-77
2022/10/06 06:57:59;;;;;;;12.88;3.25;;;;;;;;;;4954125;29;20039;-77
2022/10/06 07:00:25;;;;;;;14.13;3.60;;;;;;;;;;4955265;28;20069;-77
2022/10/06 07:02:59;;;;;;;14.23;3.13;;;;;;;;;;4973400;28;20508;-77
2022/10/06 07:05:26;;;;;;;17.27;2.80;;;;;;;;;;4962084;28;20047;-77
2022/10/06 07:07:52;;;;;;;13.35;3.17;;;;;;;;;;4962434;28;20044;-78
2022/10/06 07:10:18;;;;;;;8.00;2.35;;;;;;;;;;4957209;28;20043;-77
2022/10/06 07:12:45;;;;;;;12.05;3.22;;;;;;;;;;4971067;28;20099;-76
2022/10/06 07:26:10;;;;;;;11.30;2.65;;;;;;;;;;4958644;28;20047;-75
2022/10/06 07:28:36;;;;;;;12.65;3.42;;;;;;;;;;4973770;28;20043;-75
2022/10/06 07:31:02;;;;;;;11.63;2.78;;;;;;;;;;4966869;28;20054;-75
2022/10/06 07:33:31;;;;;;;9.90;2.38;;;;;;;;;;4963940;28;20096;-75
2022/10/06 07:35:57;;;;;;;17.50;3.60;;;;;;;;;;4960964;28;20055;-75
2022/10/06 07:38:24;;;;;;;7.68;2.97;;;;;;;;;;4962042;28;20112;-75
2022/10/06 07:40:57;;;;;;;8.75;2.80;;;;;;;;;;4957475;28;20042;-76
2022/10/06 07:43:23;;;;;;;11.23;3.08;;;;;;;;;;4973401;28;20054;-80
2022/10/06 07:45:50;;;;;;;11.55;2.40;;;;;;;;;;4969441;28;20126;-74
2022/10/06 07:48:17;;;;;;;9.07;2.58;;;;;;;;;;4962454;28;20406;-75
2022/10/06 07:50:44;;;;;;;8.50;3.20;;;;;;;;;;4953867;28;20566;-75
2022/10/06 07:53:11;;;;;;;11.57;3.05;;;;;;;;;;4964742;28;20474;-78
2022/10/06 07:55:38;;;;;;;14.13;2.72;;;;;;;;;;4954466;28;20050;-76
2022/10/06 07:58:12;;;;;;;11.55;2.90;;;;;;;;;;4968727;28;20043;-76
2022/10/06 08:00:38;;;;;;;13.75;3.55;;;;;;;;;;4971173;28;20050;-80
2022/10/06 08:03:04;;;;;;;15.25;2.83;;;;;;;;;;4957538;28;20169;-76
2022/10/06 08:05:31;;;;;;;10.23;3.20;;;;;;;;;;4951667;28;20043;-76
2022/10/06 08:07:57;;;;;;;11.75;3.30;;;;;;;;;;4951985;28;20575;-76
2022/10/06 08:10:23;;;;;;;10.18;2.78;;;;;;;;;;4951795;28;20478;-75
2022/10/06 08:12:50;;;;;;;11.40;3.00;;;;;;;;;;4956836;28;20035;-76
2022/10/06 08:15:17;;;;;;;14.50;3.10;;;;;;;;;;4952454;28;20521;-76
2022/10/06 08:17:43;;;;;;;9.25;2.78;;;;;;;;;;4965598;28;20055;-76
2022/10/06 08:20:10;;;;;;;14.98;2.38;;;;;;;;;;4952849;28;20047;-76
2022/10/06 08:22:37;;;;;;;9.75;2.47;;;;;;;;;;4951557;28;20159;-76
2022/10/06 08:25:04;;;;;;;12.93;3.22;;;;;;;;;;4952702;28;20074;-76
2022/10/06 08:27:30;;;;;;;11.75;2.88;;;;;;;;;;4955354;28;20041;-76
2022/10/06 08:29:56;;;;;;;10.32;2.47;;;;;;;;;;4950545;28;20086;-76
2022/10/06 08:32:23;;;;;;;9.93;3.05;;;;;;;;;;4952012;28;20437;-76
2022/10/06 08:34:49;;;;;;;9.00;2.58;;;;;;;;;;4963452;28;20047;-76
2022/10/06 08:37:19;;;;;;;8.95;3.05;;;;;;;;;;4959649;28;20039;-76
2022/10/06 08:39:45;;;;;;;10.60;2.72;;;;;;;;;;4954575;28;20051;-76
2022/10/06 08:42:13;;;;;;;8.13;2.67;;;;;;;;;;4954022;28;20059;-75
2022/10/06 08:44:41;;;;;;;8.32;2.55;;;;;;;;;;4974662;28;20076;-76
2022/10/06 08:47:18;;;;;;;10.68;2.97;;;;;;;;;;4959892;28;20044;-76
2022/10/06 08:49:48;;;;;;;13.70;2.45;;;;;;;;;;4955670;28;20089;-76
2022/10/06 08:52:14;;;;;;;9.02;2.65;;;;;;;;;;4956973;28;20043;-76
2022/10/06 08:54:52;;;;;;;9.50;2.45;;;;;;;;;;4958262;28;20050;-75
2022/10/06 08:57:24;;;;;;;10.85;2.28;;;;;;;;;;4956316;28;20058;-76
2022/10/06 08:59:53;;;;;;;9.20;3.03;;;;;;;;;;4954500;28;20093;-76
2022/10/06 09:02:37;;;;;;;9.50;2.60;;;;;;;;;;4963355;28;20100;-75
2022/10/06 09:05:05;;;;;;;12.93;2.50;;;;;;;;;;4967961;28;20203;-75
2022/10/06 09:07:38;;;;;;;8.77;2.42;;;;;;;;;;4957430;28;20035;-76
2022/10/06 09:10:17;;;;;;;8.00;2.22;;;;;;;;;;4958487;28;20054;-76
2022/10/06 09:13:03;;;;;;;9.32;2.90;;;;;;;;;;4961005;28;20054;-76
2022/10/06 09:15:32;;;;;;;10.55;3.47;;;;;;;;;;4959340;28;20097;-77
2022/10/06 09:18:13;;;;;;;9.02;2.40;;;;;;;;;;4961174;28;20051;-76
2022/10/06 09:20:43;;;;;;;8.32;2.70;;;;;;;;;;4963741;28;20043;-77
2022/10/06 09:23:14;;;;;;;11.27;2.63;;;;;;;;;;4957928;28;20054;-75
2022/10/06 09:25:40;;;;;;;11.25;2.83;;;;;;;;;;4965430;28;20038;-74
2022/10/06 09:28:09;;;;;;;10.25;3.42;;;;;;;;;;4982804;28;20478;-75
2022/10/06 09:30:36;;;;;;;9.57;3.15;;;;;;;;;;4978507;28;20064;-74
2022/10/06 09:33:04;;;;;;;6.55;2.40;;;;;;;;;;4963601;28;20040;-76
2022/10/06 09:35:31;;;;;;;7.63;2.30;;;;;;;;;;4958244;28;20043;-76
2022/10/06 09:38:04;;;;;;;12.93;2.88;;;;;;;;;;4964007;28;20096;-76
2022/10/06 09:40:38;;;;;;;11.07;2.42;;;;;;;;;;4963910;28;20043;-75
2022/10/06 09:43:15;;;;;;;7.40;2.65;;;;;;;;;;4962800;28;20043;-76
2022/10/06 09:45:41;;;;;;;10.38;2.97;;;;;;;;;;4969093;28;20040;-75
2022/10/06 09:48:26;;;;;;;10.88;2.30;;;;;;;;;;4962419;28;20126;-75
2022/10/06 09:51:12;;;;;;;9.93;2.67;;;;;;;;;;4970705;28;20046;-80
2022/10/06 09:53:38;;;;;;;8.43;2.50;;;;;;;;;;4957931;29;20130;-77
2022/10/06 09:56:08;;;;;;;8.70;2.03;;;;;;;;;;4940720;28;20051;-76
2022/10/06 09:58:38;;;;;;;10.88;2.42;;;;;;;;;;4961398;28;20043;-76
2022/10/06 10:01:06;;;;;;;12.85;2.53;;;;;;;;;;4956190;28;20121;-78
2022/10/06 10:03:52;;;;;;;9.65;2.00;;;;;;;;;;4955870;28;20128;-78
2022/10/06 10:06:29;;;;;;;8.93;2.97;;;;;;;;;;4955157;28;20039;-78
2022/10/06 10:09:13;;;;;;;7.47;2.10;;;;;;;;;;4954517;28;20050;-77
2022/10/06 10:14:24;;;;;;;11.27;2.58;;;;;;;;;;4973362;28;20051;-77
2022/10/06 10:16:50;;;;;;;7.97;2.25;;;;;;;;;;4973359;28;20375;-77
2022/10/06 10:19:26;;;;;;;8.77;2.67;;;;;;;;;;4973511;28;20061;-77
2022/10/06 10:21:55;;;;;;;7.28;2.40;;;;;;;;;;4973495;28;20125;-77
2022/10/06 10:24:40;;;;;;;8.85;2.65;;;;;;;;;;4974138;28;20127;-77
2022/10/06 10:27:12;;;;;;;7.50;2.50;;;;;;;;;;4973437;28;20055;-78
2022/10/06 10:30:01;;;;;;;8.30;2.30;;;;;;;;;;4972980;28;20485;-77
2022/10/06 10:32:38;;;;;;;9.90;2.53;;;;;;;;;;4967395;28;20409;-77
2022/10/06 10:35:04;;;;;;;10.45;2.97;;;;;;;;;;4959947;28;20039;-78
2022/10/06 10:37:36;;;;;;;9.43;2.17;;;;;;;;;;4971801;28;20047;-78
2022/10/06 10:40:15;;;;;;;8.10;2.50;;;;;;;;;;4972725;28;20047;-78
2022/10/06 10:42:46;;;;;;;5.78;2.10;;;;;;;;;;4972630;28;20501;-78
2022/10/06 10:45:18;;;;;;;6.97;1.90;;;;;;;;;;4972432;28;20075;-78
2022/10/06 10:47:44;;;;;;;11.10;2.75;;;;;;;;;;4970173;28;20043;-78
2022/10/06 10:50:23;;;;;;;8.23;2.40;;;;;;;;;;4968012;28;20051;-78
2022/10/06 10:52:50;;;;;;;7.50;2.30;;;;;;;;;;4953804;28;20122;-78
2022/10/06 10:55:25;;;;;;;5.60;1.90;;;;;;;;;;4953647;28;20039;-78
2022/10/06 10:57:55;;;;;;;12.25;2.97;;;;;;;;;;4953694;28;20090;-78
2022/10/06 11:00:27;;;;;;;11.98;2.25;;;;;;;;;;4953697;28;20552;-78
2022/10/06 11:02:54;;;;;;;6.32;2.10;;;;;;;;;;4953576;28;20055;-78
2022/10/06 11:05:44;;;;;;;7.35;2.05;;;;;;;;;;4953540;28;20040;-78
2022/10/06 11:08:15;;;;;;;6.82;2.20;;;;;;;;;;4952787;28;20047;-78
2022/10/06 11:10:46;;;;;;;4.88;2.42;;;;;;;;;;4953604;29;20490;-78
2022/10/06 11:13:24;;;;;;;7.75;2.22;;;;;;;;;;4952361;29;20047;-78
2022/10/06 11:16:10;;;;;;;7.63;2.50;;;;;;;;;;4953279;29;20509;-78
2022/10/06 11:18:46;;;;;;;5.60;1.95;;;;;;;;;;4953194;28;20060;-78
2022/10/06 11:21:24;;;;;;;9.77;2.20;;;;;;;;;;4953404;28;20493;-76
2022/10/06 11:23:59;;;;;;;10.10;2.20;;;;;;;;;;4953793;29;20229;-76
2022/10/06 11:26:34;;;;;;;6.30;2.20;;;;;;;;;;4954173;28;20534;-76
2022/10/06 11:29:12;;;;;;;13.02;2.15;;;;;;;;;;4953265;28;20079;-76
2022/10/06 11:32:02;;;;;;;8.68;2.20;;;;;;;;;;4971102;28;20051;-76
2022/10/06 11:34:28;;;;;;;9.18;2.20;;;;;;;;;;4973243;28;20051;-76
2022/10/06 11:36:57;;;;;;;6.07;2.72;;;;;;;;;;4972675;28;20049;-76
2022/10/06 11:39:27;;;;;;;4.90;1.85;;;;;;;;;;4972411;28;20064;-76
2022/10/06 11:42:11;;;;;;;8.98;2.50;;;;;;;;;;4970653;28;20046;-75
2022/10/06 11:44:43;;;;;;;8.07;2.05;;;;;;;;;;4952857;28;20429;-76
2022/10/06 11:47:18;;;;;;;7.93;3.65;;;;;;;;;;4952769;29;20039;-77
2022/10/06 11:49:52;;;;;;;8.90;2.15;;;;;;;;;;4952761;29;20051;-76
2022/10/06 11:52:18;;;;;;;6.38;2.10;;;;;;;;;;4955198;28;20458;-76
2022/10/06 11:54:44;;;;;;;5.88;1.98;;;;;;;;;;4972085;28;20390;-76
2022/10/06 11:57:22;;;;;;;5.25;2.28;;;;;;;;;;4961031;28;20535;-76
2022/10/06 11:59:51;;;;;;;7.88;2.38;;;;;;;;;;4952802;28;20386;-76
2022/10/06 12:02:30;;;;;;;7.88;2.10;;;;;;;;;;4952980;28;20055;-76
2022/10/06 12:05:08;;;;;;;8.77;2.60;;;;;;;;;;4957684;28;20548;-76
2022/10/06 12:07:52;;;;;;;10.23;2.75;;;;;;;;;;4971748;28;20085;-76
2022/10/06 12:10:28;;;;;;;4.32;1.92;;;;;;;;;;4973241;28;20424;-76
2022/10/06 12:12:54;;;;;;;8.97;2.33;;;;;;;;;;4973380;28;20050;-76
2022/10/06 12:15:40;;;;;;;7.30;1.80;;;;;;;;;;4972954;28;20462;-75
2022/10/06 12:18:25;;;;;;;15.18;2.55;;;;;;;;;;4935674;29;20117;-76
2022/10/06 12:20:54;;;;;;;7.30;2.10;;;;;;;;;;4955717;28;20052;-75
2022/10/06 12:23:27;;;;;;;9.20;2.25;;;;;;;;;;4956244;28;20039;-76
2022/10/06 12:26:02;;;;;;;10.07;2.40;;;;;;;;;;4956819;28;20044;-76
2022/10/06 12:28:34;;;;;;;8.18;2.00;;;;;;;;;;4955224;29;20051;-75
2022/10/06 12:31:19;;;;;;;6.13;2.17;;;;;;;;;;4956775;28;20066;-75
2022/10/06 12:33:45;;;;;;;6.30;2.25;;;;;;;;;;4975228;28;20039;-77
2022/10/06 12:36:18;;;;;;;9.05;2.33;;;;;;;;;;4955812;28;20051;-75
2022/10/06 12:39:05;;;;;;;9.15;2.33;;;;;;;;;;4957416;28;20055;-75
2022/10/06 12:41:50;;;;;;;9.20;2.28;;;;;;;;;;4956905;28;20528;-75
2022/10/06 12:44:34;;;;;;;9.00;2.38;;;;;;;;;;4955671;28;20390;-74
2022/10/06 12:47:04;;;;;;;8.23;2.42;;;;;;;;;;4955914;28;20048;-74
2022/10/06 12:49:57;;;;;;;16.63;5.05;;;;;;;;;;4956230;28;20122;-74
2022/10/06 12:52:30;;;;;;;9.15;2.40;;;;;;;;;;4955075;28;20066;-76
2022/10/06 12:55:02;;;;;;;11.75;3.00;;;;;;;;;;4995566;28;20044;-75
2022/10/06 12:57:29;;;;;;;9.20;2.70;;;;;;;;;;5014062;28;20047;-75
2022/10/06 12:59:56;;;;;;;9.15;2.60;;;;;;;;;;5006229;28;20043;-74
2022/10/06 13:02:26;;;;;;;10.05;2.40;;;;;;;;;;4974624;28;20046;-75
2022/10/06 13:04:53;;;;;;;12.65;3.22;;;;;;;;;;5027832;28;20053;-74
2022/10/06 13:07:19;;;;;;;9.35;2.28;;;;;;;;;;5013222;28;20050;-74
2022/10/06 13:09:46;;;;;;;11.02;2.55;;;;;;;;;;4979086;28;20043;-74
2022/10/06 13:12:20;;;;;;;11.80;3.17;;;;;;;;;;4955016;28;20047;-75
2022/10/06 13:14:47;;;;;;;11.73;3.30;;;;;;;;;;4959150;28;20494;-75
2022/10/06 13:17:13;;;;;;;8.23;2.55;;;;;;;;;;4963708;28;20047;-75
2022/10/06 13:19:43;;;;;;;9.25;2.50;;;;;;;;;;4959964;28;20108;-75
2022/10/06 13:22:13;;;;;;;9.93;2.50;;;;;;;;;;4964855;28;20039;-75
2022/10/06 13:24:39;;;;;;;13.32;3.45;;;;;;;;;;5066644;28;20044;-75
2022/10/06 13:27:05;;;;;;;10.30;2.70;;;;;;;;;;5076038;28;20043;-74
2022/10/06 13:29:31;;;;;;;9.68;2.50;;;;;;;;;;5075822;28;20099;-74
2022/10/06 13:31:57;;;;;;;10.88;2.53;;;;;;;;;;4986379;28;20112;-75
2022/10/06 13:34:26;;;;;;;10.85;2.35;;;;;;;;;;4968806;28;20067;-75
2022/10/06 13:36:53;;;;;;;6.75;2.28;;;;;;;;;;4955702;28;20160;-74
2022/10/06 13:39:20;;;;;;;12.00;3.08;;;;;;;;;;4964947;28;20051;-75
2022/10/06 13:41:52;;;;;;;10.25;2.30;;;;;;;;;;4974033;28;20050;-74
2022/10/06 13:44:18;;;;;;;9.52;2.28;;;;;;;;;;4969982;28;20541;-74
2022/10/06 13:46:55;;;;;;;11.55;2.40;;;;;;;;;;4972716;28;20130;-75
2022/10/06 13:49:21;;;;;;;7.03;2.67;;;;;;;;;;4967251;28;20077;-74
2022/10/06 13:51:50;;;;;;;6.45;2.15;;;;;;;;;;4955854;28;20047;-75
2022/10/06 13:54:28;;;;;;;19.95;3.38;;;;;;;;;;4955048;28;20508;-75
2022/10/06 13:56:54;;;;;;;7.20;2.40;;;;;;;;;;4954686;28;20052;-75
2022/10/06 13:59:32;;;;;;;9.18;2.40;;;;;;;;;;4954514;28;20078;-75
2022/10/06 14:02:19;;;;;;;9.60;2.75;;;;;;;;;;4953038;28;20064;-74
2022/10/06 14:05:05;;;;;;;10.35;2.60;;;;;;;;;;4961116;28;20065;-75
2022/10/06 14:07:31;;;;;;;8.65;2.17;;;;;;;;;;4973737;28;20043;-75
2022/10/06 14:09:57;;;;;;;10.20;2.60;;;;;;;;;;4972767;28;20068;-75
2022/10/06 14:12:23;;;;;;;10.20;2.65;;;;;;;;;;4969231;28;20516;-74
2022/10/06 14:14:50;;;;;;;9.02;2.50;;;;;;;;;;4969195;28;20056;-74
2022/10/06 14:17:21;;;;;;;7.70;2.70;;;;;;;;;;4973703;28;20047;-75
2022/10/06 14:19:47;;;;;;;10.57;2.50;;;;;;;;;;4963842;28;20058;-74
2022/10/06 14:22:31;;;;;;;8.63;2.22;;;;;;;;;;4954834;29;20051;-75
2022/10/06 14:24:57;;;;;;;10.70;2.42;;;;;;;;;;4954523;28;20388;-74
2022/10/06 14:27:23;;;;;;;10.80;2.60;;;;;;;;;;4954715;28;20050;-75
2022/10/06 14:29:49;;;;;;;9.30;2.40;;;;;;;;;;4976288;28;20043;-74
2022/10/06 14:32:16;;;;;;;9.93;2.50;;;;;;;;;;4975867;28;20477;-74
2022/10/06 14:34:42;;;;;;;9.70;2.47;;;;;;;;;;4968862;28;20045;-75
2022/10/06 14:37:14;;;;;;;11.80;2.45;;;;;;;;;;4954773;29;20065;-75
2022/10/06 14:39:43;;;;;;;11.20;2.53;;;;;;;;;;4956840;28;20497;-75
2022/10/06 14:42:10;;;;;;;6.97;2.30;;;;;;;;;;4955311;28;20047;-75
2022/10/06 14:44:37;;;;;;;12.13;2.60;;;;;;;;;;4960021;28;20081;-75
2022/10/06 14:47:05;;;;;;;11.10;3.08;;;;;;;;;;4953573;28;20437;-75
2022/10/06 14:49:32;;;;;;;12.38;2.83;;;;;;;;;;4972551;28;20216;-74
2022/10/06 14:51:58;;;;;;;8.48;2.33;;;;;;;;;;4974387;28;20051;-74
2022/10/06 14:54:24;;;;;;;10.25;2.47;;;;;;;;;;4960608;28;20047;-74
2022/10/06 14:56:52;;;;;;;8.13;2.40;;;;;;;;;;4953203;28;20177;-74
2022/10/06 14:59:18;;;;;;;5.85;2.33;;;;;;;;;;4957687;28;20059;-75
2022/10/06 15:01:45;;;;;;;13.05;2.45;;;;;;;;;;4954634;28;20518;-74
2022/10/06 15:04:12;;;;;;;11.68;2.90;;;;;;;;;;4962895;28;20043;-74
2022/10/06 15:09:23;;;;;;;8.02;2.65;;;;;;;;;;4960194;28;20078;-74